Time;durP1;ratioP1;P1;durP2;ratioP2;P2;SDS_P1;SDS_P2;PMS_P1;PMS_P2;Temp;Humidity;BMP_temperature;BMP_pressure;BME280_temperature;BME280_humidity;BME280_pressure;Samples;Min_cycle;Max_cycle;Signal;HPM_P1;HPM_P2
2023/11/22 00:00:47;;;;;;;21.95;11.00;;;;;;;;;;5021804;28;20040;-57
2023/11/22 00:03:13;;;;;;;22.45;11.90;;;;;;;;;;5019582;28;20418;-58
2023/11/22 00:05:39;;;;;;;20.23;10.35;;;;;;;;;;5019172;28;20037;-57
2023/11/22 00:08:05;;;;;;;24.38;10.68;;;;;;;;;;5017489;28;20060;-57
2023/11/22 00:10:32;;;;;;;27.33;10.80;;;;;;;;;;5021211;28;20057;-57
2023/11/22 00:12:58;;;;;;;20.73;10.63;;;;;;;;;;5017183;28;20045;-57
2023/11/22 00:15:25;;;;;;;26.33;11.68;;;;;;;;;;5015668;28;20042;-58
2023/11/22 00:17:52;;;;;;;23.58;10.98;;;;;;;;;;5018371;28;20052;-58
2023/11/22 00:20:20;;;;;;;22.98;11.70;;;;;;;;;;5019798;28;20502;-58
2023/11/22 00:22:47;;;;;;;26.65;11.00;;;;;;;;;;5020728;28;20045;-58
2023/11/22 00:25:13;;;;;;;19.38;10.45;;;;;;;;;;5019342;28;20061;-58
2023/11/22 00:27:39;;;;;;;24.35;11.20;;;;;;;;;;5019018;28;20044;-59
2023/11/22 00:30:06;;;;;;;20.98;10.00;;;;;;;;;;5025239;28;20037;-59
2023/11/22 00:32:32;;;;;;;25.90;10.95;;;;;;;;;;5019741;28;20048;-58
2023/11/22 00:34:58;;;;;;;21.75;10.73;;;;;;;;;;5019424;28;20076;-58
2023/11/22 00:37:24;;;;;;;24.55;11.65;;;;;;;;;;5012937;28;20041;-58
2023/11/22 00:39:51;;;;;;;19.92;9.70;;;;;;;;;;5019878;28;20057;-57
2023/11/22 00:42:20;;;;;;;22.58;10.80;;;;;;;;;;5005349;28;20379;-58
2023/11/22 00:44:47;;;;;;;24.20;10.43;;;;;;;;;;5014978;28;20407;-59
2023/11/22 00:47:13;;;;;;;23.75;11.18;;;;;;;;;;5017858;28;20503;-58
2023/11/22 00:49:39;;;;;;;23.05;10.43;;;;;;;;;;5019070;28;20041;-58
2023/11/22 00:52:07;;;;;;;20.90;10.20;;;;;;;;;;5000649;28;20049;-58
2023/11/22 00:54:33;;;;;;;22.65;10.43;;;;;;;;;;5012931;28;20476;-57
2023/11/22 00:57:00;;;;;;;20.88;10.68;;;;;;;;;;5015495;28;20050;-59
2023/11/22 00:59:27;;;;;;;24.83;11.20;;;;;;;;;;5016765;28;20041;-59
2023/11/22 01:01:53;;;;;;;23.35;11.07;;;;;;;;;;5010109;28;20423;-58
2023/11/22 01:04:19;;;;;;;21.35;10.32;;;;;;;;;;5018178;28;20371;-58
2023/11/22 01:06:45;;;;;;;22.42;9.95;;;;;;;;;;5017531;28;20041;-59
2023/11/22 01:09:13;;;;;;;25.27;10.85;;;;;;;;;;5018256;28;20167;-58
2023/11/22 01:11:39;;;;;;;24.35;10.38;;;;;;;;;;5025970;28;20044;-57
2023/11/22 01:14:05;;;;;;;20.00;9.90;;;;;;;;;;5001190;28;20686;-57
2023/11/22 01:16:32;;;;;;;17.95;9.70;;;;;;;;;;5022205;28;20045;-57
2023/11/22 01:18:58;;;;;;;18.00;9.60;;;;;;;;;;5018666;28;20030;-57
2023/11/22 01:21:25;;;;;;;19.98;9.07;;;;;;;;;;5017549;28;20690;-58
2023/11/22 01:23:51;;;;;;;14.57;7.22;;;;;;;;;;5024091;28;20048;-57
2023/11/22 01:26:17;;;;;;;12.18;5.72;;;;;;;;;;5008343;28;20037;-57
2023/11/22 01:28:44;;;;;;;7.13;4.03;;;;;;;;;;5024154;28;20045;-57
2023/11/22 01:31:12;;;;;;;5.65;3.45;;;;;;;;;;5005496;28;20034;-58
2023/11/22 01:33:39;;;;;;;5.30;3.33;;;;;;;;;;5024835;28;20061;-58
2023/11/22 01:36:05;;;;;;;4.90;2.95;;;;;;;;;;5025662;28;20100;-57
2023/11/22 01:38:31;;;;;;;4.22;2.92;;;;;;;;;;5018530;28;20030;-58
2023/11/22 01:40:57;;;;;;;5.20;2.78;;;;;;;;;;5022344;28;20414;-57
2023/11/22 01:43:26;;;;;;;3.53;2.65;;;;;;;;;;5003360;28;20065;-58
2023/11/22 01:45:55;;;;;;;3.22;2.70;;;;;;;;;;5020513;28;20057;-58
2023/11/22 01:48:21;;;;;;;7.95;3.38;;;;;;;;;;5000603;28;20498;-58
2023/11/22 01:50:48;;;;;;;5.25;3.47;;;;;;;;;;5001830;28;20037;-58
2023/11/22 01:53:16;;;;;;;5.18;3.53;;;;;;;;;;5018011;28;20049;-58
2023/11/22 01:55:44;;;;;;;5.25;3.60;;;;;;;;;;5013230;28;20057;-58
2023/11/22 01:58:11;;;;;;;5.10;3.45;;;;;;;;;;5000914;28;20049;-57
2023/11/22 02:00:51;;;;;;;4.75;3.28;;;;;;;;;;5006015;28;20040;-58
2023/11/22 02:03:18;;;;;;;4.20;3.20;;;;;;;;;;5020126;28;20037;-58
2023/11/22 02:05:45;;;;;;;3.95;3.03;;;;;;;;;;5013785;28;20447;-57
2023/11/22 02:08:12;;;;;;;5.30;3.53;;;;;;;;;;5002184;28;20049;-57
2023/11/22 02:10:38;;;;;;;4.70;3.17;;;;;;;;;;5019892;28;20049;-56
2023/11/22 02:13:07;;;;;;;5.28;3.30;;;;;;;;;;5016055;28;20045;-58
2023/11/22 02:15:34;;;;;;;6.27;3.40;;;;;;;;;;5013806;28;20037;-57
2023/11/22 02:18:01;;;;;;;5.70;3.47;;;;;;;;;;5018227;28;20045;-58
2023/11/22 02:20:27;;;;;;;4.78;2.90;;;;;;;;;;5018558;28;20053;-58
2023/11/22 02:22:54;;;;;;;6.10;3.20;;;;;;;;;;5019382;28;20053;-57
2023/11/22 02:25:20;;;;;;;4.45;2.95;;;;;;;;;;5019629;28;20045;-57
2023/11/22 02:27:47;;;;;;;7.30;3.50;;;;;;;;;;5019942;28;20037;-57
2023/11/22 02:30:14;;;;;;;4.00;2.67;;;;;;;;;;5016509;28;20516;-57
2023/11/22 02:32:40;;;;;;;5.05;2.70;;;;;;;;;;4994892;28;20053;-58
2023/11/22 02:35:07;;;;;;;5.03;3.15;;;;;;;;;;5000410;28;20061;-57
2023/11/22 02:37:35;;;;;;;7.13;3.85;;;;;;;;;;5013354;28;20052;-57
2023/11/22 02:40:20;;;;;;;6.35;3.60;;;;;;;;;;5019965;28;20045;-59
2023/11/22 02:42:47;;;;;;;5.68;3.38;;;;;;;;;;5015680;28;20050;-58
2023/11/22 02:45:15;;;;;;;6.65;3.92;;;;;;;;;;5019264;28;20049;-57
2023/11/22 02:47:44;;;;;;;5.40;3.45;;;;;;;;;;5014853;28;20530;-58
2023/11/22 02:50:11;;;;;;;5.78;3.63;;;;;;;;;;5015937;28;20049;-58
2023/11/22 02:52:37;;;;;;;7.15;3.45;;;;;;;;;;5016084;28;20042;-57
2023/11/22 02:55:07;;;;;;;8.55;4.00;;;;;;;;;;5009260;28;20029;-56
2023/11/22 02:57:33;;;;;;;8.38;3.17;;;;;;;;;;5019073;28;20111;-58
2023/11/22 02:59:59;;;;;;;5.72;3.63;;;;;;;;;;5017008;28;20025;-58
2023/11/22 03:02:25;;;;;;;6.03;3.45;;;;;;;;;;5025704;28;20057;-58
2023/11/22 03:04:51;;;;;;;6.60;3.20;;;;;;;;;;4996651;28;20042;-59
2023/11/22 03:07:18;;;;;;;6.30;3.72;;;;;;;;;;5015498;28;20057;-59
2023/11/22 03:09:45;;;;;;;5.78;3.13;;;;;;;;;;5026485;28;20041;-57
2023/11/22 03:12:12;;;;;;;7.45;3.88;;;;;;;;;;4998741;28;20037;-57
2023/11/22 03:14:39;;;;;;;6.50;3.53;;;;;;;;;;5018573;28;20042;-58
2023/11/22 03:17:05;;;;;;;7.00;4.20;;;;;;;;;;5018276;28;20041;-57
2023/11/22 03:19:33;;;;;;;6.75;4.85;;;;;;;;;;5019891;28;20041;-58
2023/11/22 03:22:02;;;;;;;9.73;5.05;;;;;;;;;;5018072;28;20049;-57
2023/11/22 03:24:30;;;;;;;7.50;4.53;;;;;;;;;;5017695;28;20506;-57
2023/11/22 03:26:58;;;;;;;7.20;4.40;;;;;;;;;;5018621;28;20049;-56
2023/11/22 03:29:25;;;;;;;7.65;4.57;;;;;;;;;;5015382;28;20047;-58
2023/11/22 03:31:52;;;;;;;8.00;5.28;;;;;;;;;;4997612;28;20053;-57
2023/11/22 03:34:19;;;;;;;7.68;5.18;;;;;;;;;;5022370;28;20050;-57
2023/11/22 03:36:45;;;;;;;8.77;4.88;;;;;;;;;;5021409;28;20048;-58
2023/11/22 03:39:14;;;;;;;6.90;4.80;;;;;;;;;;5023341;28;20034;-57
2023/11/22 03:41:41;;;;;;;9.07;6.00;;;;;;;;;;5017380;28;20503;-57
2023/11/22 03:44:09;;;;;;;7.90;5.53;;;;;;;;;;5000023;28;20048;-57
2023/11/22 03:46:38;;;;;;;9.75;5.65;;;;;;;;;;5017883;28;20037;-55
2023/11/22 03:49:06;;;;;;;;;;;;;;;;;;4999680;28;20037;-57
2023/11/22 03:51:33;;;;;;;9.30;6.10;;;;;;;;;;5014580;28;19917;-57
2023/11/22 03:53:59;;;;;;;10.10;6.22;;;;;;;;;;5017359;28;20022;-57
2023/11/22 03:56:26;;;;;;;9.63;6.22;;;;;;;;;;5023536;28;20073;-58
2023/11/22 03:58:52;;;;;;;13.63;6.63;;;;;;;;;;5013924;28;20048;-58
2023/11/22 04:01:19;;;;;;;8.65;5.80;;;;;;;;;;5019862;28;20060;-58
2023/11/22 04:03:45;;;;;;;10.90;6.65;;;;;;;;;;5017599;28;20526;-59
2023/11/22 04:06:11;;;;;;;11.43;7.00;;;;;;;;;;5020492;28;20048;-56
2023/11/22 04:08:37;;;;;;;10.13;6.38;;;;;;;;;;5020431;28;20033;-58
2023/11/22 04:11:05;;;;;;;11.52;5.90;;;;;;;;;;5014138;28;20427;-58
2023/11/22 04:13:31;;;;;;;9.85;6.40;;;;;;;;;;5013103;28;20034;-58
2023/11/22 04:15:57;;;;;;;9.27;5.47;;;;;;;;;;5017113;28;20049;-57
2023/11/22 04:18:24;;;;;;;9.75;6.00;;;;;;;;;;5024567;28;20029;-58
2023/11/22 04:20:51;;;;;;;9.13;6.00;;;;;;;;;;5021334;28;20507;-57
2023/11/22 04:23:17;;;;;;;9.85;5.70;;;;;;;;;;5022488;28;20050;-57
2023/11/22 04:25:43;;;;;;;10.77;6.28;;;;;;;;;;5021142;28;20038;-57
2023/11/22 04:28:09;;;;;;;11.43;6.13;;;;;;;;;;5023221;28;20029;-56
2023/11/22 04:30:36;;;;;;;9.73;5.85;;;;;;;;;;5021632;28;20033;-57
2023/11/22 04:33:08;;;;;;;8.73;5.32;;;;;;;;;;5019483;28;20030;-58
2023/11/22 04:35:36;;;;;;;10.20;5.85;;;;;;;;;;5019873;28;20046;-58
2023/11/22 04:38:03;;;;;;;11.23;5.80;;;;;;;;;;5017981;28;20061;-59
2023/11/22 04:40:30;;;;;;;11.88;6.40;;;;;;;;;;5015085;28;20418;-57
2023/11/22 04:42:56;;;;;;;15.98;6.10;;;;;;;;;;5015076;28;20045;-58
2023/11/22 04:45:22;;;;;;;10.27;5.07;;;;;;;;;;5018626;28;20058;-57
2023/11/22 04:47:48;;;;;;;9.45;5.50;;;;;;;;;;5015912;28;20410;-58
2023/11/22 04:50:14;;;;;;;12.85;6.47;;;;;;;;;;5018622;28;20414;-57
2023/11/22 04:52:40;;;;;;;9.60;5.53;;;;;;;;;;5015009;28;20044;-58
2023/11/22 04:55:07;;;;;;;24.42;8.45;;;;;;;;;;5018504;28;20053;-56
2023/11/22 04:57:33;;;;;;;11.27;5.90;;;;;;;;;;5019583;28;20045;-56
2023/11/22 05:00:00;;;;;;;10.25;5.50;;;;;;;;;;5016432;28;20052;-55
2023/11/22 05:02:26;;;;;;;12.27;6.40;;;;;;;;;;5018853;28;20068;-58
2023/11/22 05:04:53;;;;;;;14.23;6.88;;;;;;;;;;5013802;28;20057;-58
2023/11/22 05:07:19;;;;;;;12.95;6.30;;;;;;;;;;5016004;28;20061;-58
2023/11/22 05:09:48;;;;;;;12.65;6.72;;;;;;;;;;5012988;28;20050;-58
2023/11/22 05:12:16;;;;;;;10.73;5.70;;;;;;;;;;5014650;28;20046;-58
2023/11/22 05:14:45;;;;;;;10.40;5.85;;;;;;;;;;5024674;28;20574;-57
2023/11/22 05:17:14;;;;;;;12.77;6.07;;;;;;;;;;5015771;28;20434;-56
2023/11/22 05:19:40;;;;;;;14.07;6.38;;;;;;;;;;5021408;28;20060;-56
2023/11/22 05:22:07;;;;;;;13.13;6.28;;;;;;;;;;5016990;28;20064;-57
2023/11/22 05:24:34;;;;;;;10.40;5.72;;;;;;;;;;5015882;28;20596;-56
2023/11/22 05:27:02;;;;;;;13.13;6.38;;;;;;;;;;5017122;28;20052;-56
2023/11/22 05:29:28;;;;;;;12.80;5.70;;;;;;;;;;5014341;28;20046;-57
2023/11/22 05:31:54;;;;;;;11.02;5.75;;;;;;;;;;5016529;28;20514;-56
2023/11/22 05:34:20;;;;;;;12.20;6.15;;;;;;;;;;5018844;28;20057;-56
2023/11/22 05:36:48;;;;;;;12.27;6.03;;;;;;;;;;5009114;28;20050;-60
2023/11/22 05:39:14;;;;;;;15.45;6.18;;;;;;;;;;5015763;28;20509;-57
2023/11/22 05:41:40;;;;;;;10.90;6.32;;;;;;;;;;5011269;28;20520;-57
2023/11/22 05:44:08;;;;;;;13.43;6.30;;;;;;;;;;5010134;28;20508;-57
2023/11/22 05:46:34;;;;;;;11.75;6.03;;;;;;;;;;5004350;28;20056;-57
2023/11/22 05:49:00;;;;;;;12.25;6.20;;;;;;;;;;5006624;28;20212;-57
2023/11/22 05:51:26;;;;;;;13.32;6.30;;;;;;;;;;5008836;28;20059;-56
2023/11/22 05:53:52;;;;;;;13.25;6.40;;;;;;;;;;5010200;28;20045;-56
2023/11/22 05:56:18;;;;;;;13.65;6.40;;;;;;;;;;5007726;28;20064;-57
2023/11/22 05:58:45;;;;;;;13.45;6.05;;;;;;;;;;5010450;28;20388;-56
2023/11/22 06:01:13;;;;;;;14.60;6.60;;;;;;;;;;5005975;28;20042;-58
2023/11/22 06:03:40;;;;;;;14.43;6.45;;;;;;;;;;5008157;28;20046;-56
2023/11/22 06:06:06;;;;;;;12.82;6.38;;;;;;;;;;5007196;28;20049;-57
2023/11/22 06:08:33;;;;;;;13.57;5.95;;;;;;;;;;5006468;28;20045;-57
2023/11/22 06:10:59;;;;;;;16.80;6.75;;;;;;;;;;5013924;28;20506;-58
2023/11/22 06:13:26;;;;;;;16.65;7.05;;;;;;;;;;5016365;28;20053;-57
2023/11/22 06:15:52;;;;;;;13.63;6.38;;;;;;;;;;5016844;28;20033;-57
2023/11/22 06:18:18;;;;;;;17.00;7.30;;;;;;;;;;5010628;28;20403;-55
2023/11/22 06:20:47;;;;;;;17.45;7.03;;;;;;;;;;5007818;28;20025;-57
2023/11/22 06:23:13;;;;;;;19.48;7.65;;;;;;;;;;5016444;28;20045;-58
2023/11/22 06:25:42;;;;;;;15.43;7.20;;;;;;;;;;5011708;28;20046;-57
2023/11/22 06:28:08;;;;;;;16.80;6.97;;;;;;;;;;5016317;28;20054;-58
2023/11/22 06:30:34;;;;;;;19.27;7.68;;;;;;;;;;5010371;28;20045;-58
2023/11/22 06:33:01;;;;;;;18.33;7.35;;;;;;;;;;5015126;28;20061;-58
2023/11/22 06:35:27;;;;;;;14.93;6.80;;;;;;;;;;5012638;28;20573;-57
2023/11/22 06:37:53;;;;;;;25.02;9.20;;;;;;;;;;5009675;28;20038;-58
2023/11/22 06:40:22;;;;;;;26.95;9.82;;;;;;;;;;5008605;28;20030;-57
2023/11/22 06:42:48;;;;;;;51.35;15.10;;;;;;;;;;5006179;28;20549;-58
2023/11/22 06:45:14;;;;;;;77.78;20.20;;;;;;;;;;5007110;28;20049;-57
2023/11/22 06:47:41;;;;;;;146.93;31.42;;;;;;;;;;5009009;28;20045;-58
2023/11/22 06:50:11;;;;;;;153.55;33.10;;;;;;;;;;5005696;28;20053;-57
2023/11/22 06:52:39;;;;;;;53.70;14.38;;;;;;;;;;5006407;28;20033;-57
2023/11/22 06:55:07;;;;;;;28.00;9.45;;;;;;;;;;5010070;28;20022;-57
2023/11/22 06:57:34;;;;;;;24.80;8.88;;;;;;;;;;5009091;28;20037;-59
2023/11/22 07:00:05;;;;;;;21.75;9.23;;;;;;;;;;5011829;28;20056;-57
2023/11/22 07:02:32;;;;;;;35.67;14.85;;;;;;;;;;5010523;28;20093;-57
2023/11/22 07:05:01;;;;;;;32.70;13.45;;;;;;;;;;5009826;28;20030;-57
2023/11/22 07:07:27;;;;;;;23.73;9.40;;;;;;;;;;5010809;28;20498;-57
2023/11/22 07:09:54;;;;;;;22.80;8.52;;;;;;;;;;5012685;28;20404;-57
2023/11/22 07:12:20;;;;;;;26.88;9.27;;;;;;;;;;5012991;28;20038;-57
2023/11/22 07:14:46;;;;;;;22.25;8.35;;;;;;;;;;5010187;28;20050;-57
2023/11/22 07:17:12;;;;;;;27.17;9.18;;;;;;;;;;5008635;28;20042;-57
2023/11/22 07:19:41;;;;;;;22.50;8.90;;;;;;;;;;5009772;28;20045;-58
2023/11/22 07:22:15;;;;;;;25.58;9.77;;;;;;;;;;5009013;28;20061;-58
2023/11/22 07:24:43;;;;;;;24.58;8.70;;;;;;;;;;4991986;28;20053;-57
2023/11/22 07:27:13;;;;;;;26.85;9.45;;;;;;;;;;5010887;28;20050;-57
2023/11/22 07:29:43;;;;;;;28.27;9.05;;;;;;;;;;5009883;28;20033;-58
2023/11/22 07:32:10;;;;;;;26.90;9.35;;;;;;;;;;5008255;28;20042;-57
2023/11/22 07:34:37;;;;;;;24.55;9.45;;;;;;;;;;5010267;28;20534;-59
2023/11/22 07:37:03;;;;;;;30.20;9.90;;;;;;;;;;5015914;28;20040;-57
2023/11/22 07:39:29;;;;;;;32.13;10.80;;;;;;;;;;5011326;28;20033;-57
2023/11/22 07:41:56;;;;;;;30.02;9.93;;;;;;;;;;5008604;28;20034;-57
2023/11/22 07:44:23;;;;;;;33.30;10.77;;;;;;;;;;5009320;28;20037;-59
2023/11/22 07:46:53;;;;;;;28.52;9.15;;;;;;;;;;5007816;28;20499;-58
2023/11/22 07:49:21;;;;;;;33.83;9.98;;;;;;;;;;5010740;28;20029;-58
2023/11/22 07:51:47;;;;;;;23.85;8.82;;;;;;;;;;5010943;28;20041;-58
2023/11/22 07:54:15;;;;;;;24.02;8.85;;;;;;;;;;5009345;28;20033;-58
2023/11/22 07:56:45;;;;;;;25.17;9.43;;;;;;;;;;5009529;28;20053;-58
2023/11/22 07:59:11;;;;;;;;;;;;;;;;;;5010983;28;20061;-58
2023/11/22 08:01:37;;;;;;;26.75;10.05;;;;;;;;;;5010219;28;19957;-57
2023/11/22 08:04:05;;;;;;;28.63;10.40;;;;;;;;;;4993594;28;20396;-58
2023/11/22 08:06:32;;;;;;;27.88;10.85;;;;;;;;;;5009256;28;20038;-58
2023/11/22 08:09:01;;;;;;;24.05;9.15;;;;;;;;;;5014841;28;20054;-58
2023/11/22 08:11:28;;;;;;;22.75;9.10;;;;;;;;;;5004225;28;20080;-59
2023/11/22 08:13:59;;;;;;;23.23;9.32;;;;;;;;;;5025405;28;20498;-59
2023/11/22 08:16:25;;;;;;;21.70;8.13;;;;;;;;;;5021584;28;20057;-58
2023/11/22 08:18:51;;;;;;;27.30;9.50;;;;;;;;;;4997040;28;20038;-57
2023/11/22 08:21:18;;;;;;;22.60;8.23;;;;;;;;;;5014093;28;20050;-58
2023/11/22 08:23:46;;;;;;;21.40;8.77;;;;;;;;;;5023627;28;20045;-58
2023/11/22 08:26:14;;;;;;;15.43;6.88;;;;;;;;;;5019337;28;20561;-59
2023/11/22 08:28:40;;;;;;;20.58;8.45;;;;;;;;;;5020862;28;20049;-58
2023/11/22 08:31:09;;;;;;;18.95;7.47;;;;;;;;;;5012718;28;20033;-59
2023/11/22 08:33:39;;;;;;;17.67;7.60;;;;;;;;;;5017985;28;20033;-59
2023/11/22 08:36:07;;;;;;;17.75;7.45;;;;;;;;;;5012339;28;20530;-59
2023/11/22 08:38:34;;;;;;;16.95;7.57;;;;;;;;;;5012583;28;20414;-60
2023/11/22 08:41:05;;;;;;;15.68;6.88;;;;;;;;;;5008895;28;20418;-58
2023/11/22 08:43:32;;;;;;;16.10;7.07;;;;;;;;;;5020886;28;20053;-59
2023/11/22 08:45:59;;;;;;;18.08;7.60;;;;;;;;;;5016417;28;20587;-59
2023/11/22 08:48:25;;;;;;;20.10;8.38;;;;;;;;;;5009095;28;20073;-59
2023/11/22 08:50:55;;;;;;;15.30;7.78;;;;;;;;;;5002785;28;20384;-59
2023/11/22 08:53:21;;;;;;;14.75;6.13;;;;;;;;;;5017848;28;20060;-59
2023/11/22 08:55:47;;;;;;;17.40;7.13;;;;;;;;;;5013051;28;20491;-59
2023/11/22 08:58:14;;;;;;;17.00;7.03;;;;;;;;;;5014417;28;20057;-57
2023/11/22 09:00:45;;;;;;;17.15;7.20;;;;;;;;;;5017461;28;20116;-60
2023/11/22 09:03:12;;;;;;;17.42;7.15;;;;;;;;;;5014251;28;20079;-57
2023/11/22 09:05:46;;;;;;;14.40;6.45;;;;;;;;;;5018526;28;20038;-59
2023/11/22 09:08:15;;;;;;;14.00;6.22;;;;;;;;;;5017069;28;20062;-59
2023/11/22 09:10:42;;;;;;;14.50;6.63;;;;;;;;;;5018460;28;20056;-58
2023/11/22 09:13:08;;;;;;;13.23;6.72;;;;;;;;;;5015100;28;20289;-58
2023/11/22 09:15:36;;;;;;;12.05;6.15;;;;;;;;;;5022202;28;20034;-58
2023/11/22 09:18:02;;;;;;;15.27;6.45;;;;;;;;;;5017890;28;20514;-58
2023/11/22 09:20:28;;;;;;;13.02;5.80;;;;;;;;;;5022878;28;20072;-59
2023/11/22 09:22:54;;;;;;;13.13;6.25;;;;;;;;;;5010531;28;20034;-58
2023/11/22 09:25:23;;;;;;;11.05;5.50;;;;;;;;;;5015812;28;20058;-57
2023/11/22 09:27:51;;;;;;;12.82;6.00;;;;;;;;;;5016340;28;20041;-58
2023/11/22 09:30:35;;;;;;;14.05;6.60;;;;;;;;;;5012189;28;20045;-58
2023/11/22 09:33:14;;;;;;;15.50;6.07;;;;;;;;;;5016465;28;20033;-57
2023/11/22 09:35:43;;;;;;;15.45;6.70;;;;;;;;;;5016220;28;20041;-59
2023/11/22 09:38:11;;;;;;;11.95;6.13;;;;;;;;;;5011993;28;20037;-58
2023/11/22 09:40:48;;;;;;;15.75;7.70;;;;;;;;;;5017975;28;20049;-59
2023/11/22 09:43:17;;;;;;;11.82;5.65;;;;;;;;;;5009510;28;20038;-59
2023/11/22 09:45:48;;;;;;;11.65;6.07;;;;;;;;;;5013162;28;20044;-58
2023/11/22 09:48:18;;;;;;;12.35;6.63;;;;;;;;;;5015190;28;20054;-59
2023/11/22 09:50:58;;;;;;;17.40;6.53;;;;;;;;;;5018860;28;20518;-58
2023/11/22 09:53:40;;;;;;;11.13;6.03;;;;;;;;;;5016337;28;20612;-58
2023/11/22 09:56:09;;;;;;;13.05;6.07;;;;;;;;;;5013832;28;20025;-57
2023/11/22 09:58:40;;;;;;;15.00;5.55;;;;;;;;;;5017575;28;20422;-57
2023/11/22 10:01:07;;;;;;;11.98;6.05;;;;;;;;;;5020733;28;20049;-57
2023/11/22 10:03:33;;;;;;;11.50;6.03;;;;;;;;;;5012609;28;20033;-59
2023/11/22 10:06:00;;;;;;;11.38;5.35;;;;;;;;;;5022161;28;20042;-58
2023/11/22 10:08:27;;;;;;;12.25;5.90;;;;;;;;;;5008236;28;20049;-58
2023/11/22 10:10:57;;;;;;;10.65;6.38;;;;;;;;;;5017512;28;20109;-59
2023/11/22 10:13:23;;;;;;;11.43;6.05;;;;;;;;;;5019473;28;20069;-59
2023/11/22 10:15:51;;;;;;;13.65;6.47;;;;;;;;;;5020120;28;20419;-58
2023/11/22 10:18:20;;;;;;;16.17;6.82;;;;;;;;;;5019301;28;20053;-57
2023/11/22 10:20:49;;;;;;;12.02;5.80;;;;;;;;;;5012969;28;20041;-58
2023/11/22 10:23:17;;;;;;;14.15;6.35;;;;;;;;;;5010954;28;20056;-57
2023/11/22 10:25:51;;;;;;;14.93;7.18;;;;;;;;;;5020513;28;20648;-59
2023/11/22 10:28:21;;;;;;;17.02;7.22;;;;;;;;;;5016509;28;20562;-57
2023/11/22 10:30:49;;;;;;;10.55;5.70;;;;;;;;;;5014132;28;20038;-58
2023/11/22 10:33:16;;;;;;;12.23;5.68;;;;;;;;;;5018965;28;20037;-58
2023/11/22 10:35:46;;;;;;;14.25;6.78;;;;;;;;;;5019455;28;20367;-58
2023/11/22 10:38:17;;;;;;;12.27;6.10;;;;;;;;;;5019507;28;20049;-59
2023/11/22 10:40:44;;;;;;;11.95;6.70;;;;;;;;;;5011438;28;20406;-57
2023/11/22 10:43:12;;;;;;;13.20;6.70;;;;;;;;;;5020742;28;20050;-58
2023/11/22 10:45:38;;;;;;;11.52;5.95;;;;;;;;;;5019389;28;20038;-59
2023/11/22 10:48:08;;;;;;;15.63;8.10;;;;;;;;;;5022111;28;20128;-59
2023/11/22 10:50:34;;;;;;;15.05;7.43;;;;;;;;;;5016227;28;20076;-58
2023/11/22 10:53:06;;;;;;;14.13;7.75;;;;;;;;;;5017281;28;20045;-59
2023/11/22 10:55:32;;;;;;;13.75;7.30;;;;;;;;;;5014284;28;20041;-58
2023/11/22 10:58:03;;;;;;;14.63;6.97;;;;;;;;;;5017710;28;20053;-58
2023/11/22 11:00:32;;;;;;;15.85;8.30;;;;;;;;;;5014957;28;20037;-59
2023/11/22 11:03:01;;;;;;;12.77;7.43;;;;;;;;;;5012058;28;20045;-57
2023/11/22 11:05:31;;;;;;;14.25;8.10;;;;;;;;;;5013044;28;20324;-57
2023/11/22 11:08:10;;;;;;;16.02;8.80;;;;;;;;;;5021812;28;20040;-57
2023/11/22 11:10:43;;;;;;;18.30;9.52;;;;;;;;;;5022479;28;20083;-58
2023/11/22 11:13:10;;;;;;;15.30;8.45;;;;;;;;;;5021323;28;20042;-57
2023/11/22 11:15:43;;;;;;;17.17;7.80;;;;;;;;;;5021741;28;20491;-57
2023/11/22 11:18:12;;;;;;;14.50;7.75;;;;;;;;;;5022627;28;20058;-58
2023/11/22 11:20:49;;;;;;;14.95;8.25;;;;;;;;;;5019578;28;20045;-57
2023/11/22 11:23:17;;;;;;;17.08;8.35;;;;;;;;;;5010466;28;20053;-59
2023/11/22 11:25:43;;;;;;;13.43;8.13;;;;;;;;;;5017312;28;20061;-58
2023/11/22 11:28:12;;;;;;;15.30;8.13;;;;;;;;;;5015084;28;20108;-57
2023/11/22 11:30:45;;;;;;;13.77;7.18;;;;;;;;;;5022994;28;20419;-57
2023/11/22 11:33:13;;;;;;;12.63;6.93;;;;;;;;;;5015419;28;20046;-58
2023/11/22 11:35:45;;;;;;;12.48;6.53;;;;;;;;;;5022709;28;20049;-58
2023/11/22 11:38:13;;;;;;;15.02;7.55;;;;;;;;;;5017534;28;20073;-59
2023/11/22 11:40:45;;;;;;;17.60;8.85;;;;;;;;;;5020469;28;20801;-57
2023/11/22 11:43:12;;;;;;;17.08;8.30;;;;;;;;;;5016957;28;20042;-59
2023/11/22 11:45:39;;;;;;;15.52;8.20;;;;;;;;;;5017223;28;20052;-57
2023/11/22 11:48:06;;;;;;;16.02;8.32;;;;;;;;;;5016866;28;20534;-57
2023/11/22 11:50:33;;;;;;;16.55;8.18;;;;;;;;;;5023873;28;20037;-57
2023/11/22 11:52:59;;;;;;;16.48;8.55;;;;;;;;;;5017378;28;20041;-59
2023/11/22 11:55:27;;;;;;;19.60;10.13;;;;;;;;;;5024362;28;20033;-58
2023/11/22 11:57:55;;;;;;;15.20;8.52;;;;;;;;;;5021863;28;20056;-59
2023/11/22 12:00:24;;;;;;;23.75;11.55;;;;;;;;;;5015629;28;20050;-58
2023/11/22 12:02:50;;;;;;;28.10;13.25;;;;;;;;;;5013734;28;20038;-59
2023/11/22 12:05:20;;;;;;;17.58;7.72;;;;;;;;;;5018875;28;20868;-58
2023/11/22 12:07:47;;;;;;;17.90;8.55;;;;;;;;;;5024836;28;20040;-58
2023/11/22 12:10:13;;;;;;;13.38;7.40;;;;;;;;;;5017613;28;20037;-58
2023/11/22 12:12:43;;;;;;;15.75;7.63;;;;;;;;;;5015683;28;20030;-57
2023/11/22 12:15:10;;;;;;;14.38;6.82;;;;;;;;;;5011966;28;20077;-59
2023/11/22 12:17:36;;;;;;;17.45;8.23;;;;;;;;;;5011521;28;20034;-58
2023/11/22 12:20:11;;;;;;;15.32;8.65;;;;;;;;;;5006719;28;20411;-59
2023/11/22 12:22:38;;;;;;;12.95;7.75;;;;;;;;;;5008992;28;20037;-58
2023/11/22 12:25:08;;;;;;;14.05;7.88;;;;;;;;;;5009581;28;20045;-59
2023/11/22 12:27:38;;;;;;;16.83;9.23;;;;;;;;;;5012182;28;20040;-59
2023/11/22 12:30:06;;;;;;;18.10;9.35;;;;;;;;;;5010139;28;20041;-57
2023/11/22 12:32:33;;;;;;;16.23;9.30;;;;;;;;;;5015484;28;20042;-59
2023/11/22 12:34:59;;;;;;;15.93;8.57;;;;;;;;;;5011945;28;20042;-59
2023/11/22 12:37:27;;;;;;;20.08;9.75;;;;;;;;;;5011319;28;20076;-59
2023/11/22 12:39:54;;;;;;;18.25;8.30;;;;;;;;;;5009541;28;20052;-59
2023/11/22 12:42:20;;;;;;;19.08;7.53;;;;;;;;;;5008475;28;20046;-59
2023/11/22 12:44:52;;;;;;;14.00;7.32;;;;;;;;;;5007590;28;20046;-58
2023/11/22 12:47:35;;;;;;;19.80;9.75;;;;;;;;;;5005868;28;20053;-60
2023/11/22 12:50:04;;;;;;;16.20;6.97;;;;;;;;;;5006516;28;20046;-58
2023/11/22 12:52:32;;;;;;;22.13;10.07;;;;;;;;;;5010289;28;20655;-59
2023/11/22 12:55:02;;;;;;;21.35;8.85;;;;;;;;;;5008794;28;20270;-58
2023/11/22 12:57:28;;;;;;;25.92;7.57;;;;;;;;;;5008622;28;20034;-61
2023/11/22 12:59:54;;;;;;;27.13;11.43;;;;;;;;;;5010070;28;20053;-58
2023/11/22 13:02:20;;;;;;;19.38;8.60;;;;;;;;;;5007284;28;20053;-58
2023/11/22 13:04:47;;;;;;;14.82;7.32;;;;;;;;;;5011507;28;20042;-59
2023/11/22 13:07:13;;;;;;;15.65;7.57;;;;;;;;;;5007230;28;20053;-58
2023/11/22 13:09:39;;;;;;;13.57;6.57;;;;;;;;;;5006996;28;20418;-59
2023/11/22 13:12:05;;;;;;;13.18;7.20;;;;;;;;;;5006694;28;20033;-60
2023/11/22 13:14:37;;;;;;;12.68;6.88;;;;;;;;;;5006018;28;20034;-59
2023/11/22 13:17:04;;;;;;;15.55;8.00;;;;;;;;;;5006264;28;20026;-59
2023/11/22 13:19:30;;;;;;;20.13;10.35;;;;;;;;;;5011602;28;20038;-59
2023/11/22 13:21:56;;;;;;;19.70;9.82;;;;;;;;;;5007954;28;20222;-58
2023/11/22 13:24:22;;;;;;;14.82;7.63;;;;;;;;;;5008779;28;20046;-59
2023/11/22 13:26:48;;;;;;;20.15;8.23;;;;;;;;;;5010050;28;20026;-58
2023/11/22 13:29:21;;;;;;;20.08;9.27;;;;;;;;;;5058034;28;20821;-58
2023/11/22 13:31:48;;;;;;;17.80;8.30;;;;;;;;;;5038269;28;20064;-58
2023/11/22 13:34:14;;;;;;;18.45;8.13;;;;;;;;;;5038550;28;20567;-59
2023/11/22 13:36:40;;;;;;;17.95;9.23;;;;;;;;;;5035683;28;20060;-58
2023/11/22 13:39:06;;;;;;;20.52;10.43;;;;;;;;;;5036361;28;20045;-58
2023/11/22 13:41:32;;;;;;;17.83;9.00;;;;;;;;;;5037687;28;20033;-58
2023/11/22 13:43:58;;;;;;;14.57;8.45;;;;;;;;;;5041263;28;20373;-59
2023/11/22 13:46:26;;;;;;;14.65;8.38;;;;;;;;;;5035292;28;20033;-58
2023/11/22 13:48:52;;;;;;;15.20;8.25;;;;;;;;;;5042410;28;20041;-58
2023/11/22 13:51:18;;;;;;;14.48;7.63;;;;;;;;;;5037923;28;20125;-58
2023/11/22 13:53:49;;;;;;;13.80;7.60;;;;;;;;;;5034469;28;20050;-58
2023/11/22 13:56:15;;;;;;;20.95;7.28;;;;;;;;;;5038108;28;20520;-58
2023/11/22 13:58:42;;;;;;;14.82;7.80;;;;;;;;;;5034495;28;20025;-58
2023/11/22 14:01:13;;;;;;;13.77;7.32;;;;;;;;;;5035439;28;20041;-57
2023/11/22 14:03:39;;;;;;;11.80;6.80;;;;;;;;;;5033591;28;20052;-57
2023/11/22 14:06:05;;;;;;;12.82;6.45;;;;;;;;;;5038363;28;20041;-58
2023/11/22 14:08:32;;;;;;;24.77;12.55;;;;;;;;;;5038050;28;20041;-59
2023/11/22 14:10:58;;;;;;;20.50;10.13;;;;;;;;;;5037291;28;20040;-58
2023/11/22 14:13:24;;;;;;;14.57;8.25;;;;;;;;;;5036541;28;20064;-58
2023/11/22 14:15:50;;;;;;;12.07;6.72;;;;;;;;;;5038218;28;20060;-58
2023/11/22 14:18:17;;;;;;;17.75;8.55;;;;;;;;;;5037518;28;20025;-58
2023/11/22 14:20:43;;;;;;;23.95;13.10;;;;;;;;;;5038555;28;20064;-58
2023/11/22 14:23:09;;;;;;;23.02;12.88;;;;;;;;;;5036425;28;20030;-58
2023/11/22 14:25:35;;;;;;;14.40;7.72;;;;;;;;;;5037556;28;20029;-57
2023/11/22 14:28:02;;;;;;;18.77;10.65;;;;;;;;;;5035696;28;20041;-57
2023/11/22 14:30:35;;;;;;;16.42;9.32;;;;;;;;;;5036928;28;20048;-58
2023/11/22 14:33:06;;;;;;;14.02;9.00;;;;;;;;;;5034421;28;20401;-58